K2NV Weather Reports


Display with metric or nautical units.
time (UTC)temp
F
wind
direction
speed
MPH
gust
MPH
rain 1hr
in
rain 24hr
in
rain mn
in
humidity
%
barometer
mb
20210307030619 24 257 0.0 1.0 0.00 0.00 0.00 70 1024.8
20210307025941 24 279 1.0 2.0 0.00 0.00 0.00 70 1024.8
20210307024637 25 259 0.0 0.0 0.00 0.00 0.00 69 1024.9
20210307023613 25 282 1.0 3.0 0.00 0.00 0.00 68 1024.8
20210307023106 25 289 0.0 0.0 0.00 0.00 0.00 68 1024.8
20210307021617 25 292 0.0 0.0 0.00 0.00 0.00 67 1024.7
20210307020613 26 276 0.0 0.0 0.00 0.00 0.00 68 1024.7
20210307020041 26 290 0.0 0.0 0.00 0.00 0.00 66 1024.6
20210307014613 26 309 0.0 0.0 0.00 0.00 0.00 66 1024.5
20210307011613 27 318 0.0 2.0 0.00 0.00 0.00 62 1024.2
20210307010617 27 318 0.0 0.0 0.00 0.00 0.00 61 1024.0
20210307005903 27 329 0.0 0.0 0.00 0.00 0.00 58 1024.0
20210307004614 27 327 1.0 1.0 0.00 0.00 0.00 58 1023.9
20210307000717 28 324 1.0 12.0 0.00 0.00 0.00 59 1023.5
20210307000035 29 311 7.0 9.0 0.00 0.00 0.00 59 1023.3
20210306234614 29 322 0.0 1.0 0.00 0.00 0.00 61 1023.1
20210306233614 29 304 1.0 6.0 0.00 0.00 0.00 60 1023.0
20210306232922 29 319 2.0 8.0 0.00 0.00 0.00 61 1022.9
20210306230613 30 345 0.0 1.0 0.00 0.00 0.00 59 1022.7
20210306225837 30 304 3.0 12.0 0.00 0.00 0.00 59 1022.7
20210306224613 30 322 0.0 6.0 0.00 0.00 0.00 60 1022.6
20210306223619 30 325 0.0 3.0 0.00 0.00 0.00 58 1022.6
20210306222934 30 319 6.0 9.0 0.00 0.00 0.00 57 1022.5
20210306221611 30 315 0.0 8.0 0.00 0.00 0.00 59 1022.3
20210306220612 30 324 5.0 10.0 0.00 0.00 0.00 56 1022.2
20210306215818 30 344 1.0 9.0 0.00 0.00 0.00 57 1022.2
20210306213613 30 321 2.0 8.0 0.00 0.00 0.00 58 1022.0
20210306211612 30 333 5.0 9.0 0.00 0.00 0.00 59 1021.7
20210306210612 31 321 1.0 8.0 0.00 0.00 0.00 59 1021.8
20210306204615 31 345 3.0 7.0 0.00 0.00 0.00 58 1021.7
20210306203613 31 319 7.0 14.0 0.00 0.00 0.00 57 1021.6
20210306202903 32 287 6.0 12.0 0.00 0.00 0.00 56 1021.6
20210306201612 32 296 7.0 14.0 0.00 0.00 0.00 57 1021.5
20210306200612 32 319 7.0 10.0 0.00 0.00 0.00 56 1021.5
20210306195819 31 284 8.0 20.0 0.00 0.00 0.00 59 1021.4
20210306194618 31 316 7.0 10.0 0.00 0.00 0.00 58 1021.4
20210306193612 31 308 3.0 7.0 0.00 0.00 0.00 57 1021.4
20210306192800 30 323 3.0 8.0 0.00 0.00 0.00 57 1021.4
20210306191616 30 311 3.0 9.0 0.00 0.00 0.00 60 1021.3
20210306190617 30 296 2.0 6.0 0.00 0.00 0.00 62 1021.3
20210306185849 30 329 5.0 10.0 0.00 0.00 0.00 61 1021.4
20210306184624 30 270 5.0 12.0 0.00 0.00 0.00 63 1021.5
20210306181611 28 293 2.0 3.0 0.00 0.00 0.00 68 1021.6
20210306180613 28 317 2.0 2.0 0.00 0.00 0.00 68 1021.7
20210306175908 28 290 1.0 3.0 0.00 0.00 0.00 70 1021.8
20210306174611 28 303 2.0 3.0 0.00 0.00 0.00 67 1021.8
20210306173616 27 296 1.0 8.0 0.00 0.00 0.00 68 1021.8
20210306172938 27 311 5.0 9.0 0.00 0.00 0.00 70 1022.0
20210306171618 27 301 1.0 3.0 0.00 0.00 0.00 69 1022.1
20210306164624 27 301 0.0 3.0 0.00 0.00 0.00 66 1022.1
20210306163613 26 295 0.0 0.0 0.00 0.00 0.00 64 1022.2
20210306162841 26 275 2.0 6.0 0.00 0.00 0.00 66 1022.1
20210306161639 26 300 0.0 2.0 0.00 0.00 0.00 66 1022.2
20210306160618 26 297 3.0 9.0 0.00 0.00 0.00 65 1022.2
20210306152808 25 266 1.0 5.0 0.00 0.00 0.00 69 1022.1
20210306143611 24 341 0.0 0.0 0.00 0.00 0.00 64 1022.3
20210306141613 23 12 0.0 0.0 0.00 0.00 0.00 64 1022.2
20210306135834 23 36 0.0 0.0 0.00 0.00 0.00 66 1022.2
20210306134622 23 43 0.0 0.0 0.00 0.00 0.00 67 1022.2
20210306133619 22 15 0.0 0.0 0.00 0.00 0.00 65 1022.2
20210306133109 22 1 0.0 1.0 0.00 0.00 0.00 66 1022.1
20210306131616 22 12 0.0 0.0 0.00 0.00 0.00 65 1022.0
20210306130613 22 21 0.0 0.0 0.00 0.00 0.00 67 1022.0
20210306130038 22 6 0.0 0.0 0.00 0.00 0.00 67 1021.8
20210306124622 22 0 0.0 0.0 0.00 0.00 0.00 66 1021.8
20210306121612 21 22 0.0 0.0 0.00 0.00 0.00 66 1021.5
20210306120613 21 19 0.0 0.0 0.00 0.00 0.00 67 1021.5
20210306115942 21 17 0.0 0.0 0.00 0.00 0.00 67 1021.5
20210306114612 21 29 0.0 0.0 0.00 0.00 0.00 66 1021.3
20210306113831 22 10 0.0 0.0 0.00 0.00 0.00 66 1021.2
20210306113203 22 5 0.0 0.0 0.00 0.00 0.00 67 1021.0
20210306111623 22 346 0.0 6.0 0.00 0.00 0.00 68 1021.0
20210306110653 22 347 0.0 1.0 0.00 0.00 0.00 69 1021.0
20210306110111 22 331 2.0 6.0 0.00 0.00 0.00 68 1020.9
20210306104619 22 338 0.0 1.0 0.00 0.00 0.00 68 1020.8
20210306103703 23 332 1.0 1.0 0.00 0.00 0.00 68 1020.7
20210306102838 23 318 2.0 12.0 0.00 0.00 0.00 66 1020.5
20210306101613 23 344 0.0 3.0 0.00 0.00 0.00 67 1020.4
20210306100619 23 342 2.0 3.0 0.00 0.00 0.00 67 1020.3
20210306095959 23 334 1.0 5.0 0.00 0.00 0.00 67 1020.2
20210306094612 23 327 2.0 8.0 0.00 0.00 0.00 68 1020.2
20210306093614 23 322 2.0 9.0 0.00 0.00 0.00 69 1020.2
20210306092858 24 341 0.0 3.0 0.00 0.00 0.00 68 1020.1
20210306091619 24 351 3.0 7.0 0.00 0.00 0.00 67 1020.0
20210306083717 24 352 6.0 9.0 0.00 0.00 0.00 67 1019.7
20210306083037 25 329 2.0 12.0 0.00 0.00 0.00 68 1019.6
20210306083025 25 329 2.0 12.0 0.00 0.00 0.00 68 1019.6
20210306081613 25 339 1.0 3.0 0.00 0.00 0.00 66 1019.5
20210306080625 25 330 5.0 9.0 0.00 0.00 0.00 66 1019.4
20210306075935 25 348 1.0 3.0 0.00 0.00 0.00 67 1019.3
20210306074618 25 350 1.0 2.0 0.00 0.00 0.00 66 1019.4
20210306073614 25 342 2.0 6.0 0.00 0.00 0.00 68 1019.4
20210306072953 25 355 0.0 0.0 0.00 0.00 0.00 68 1019.4
20210306071616 25 343 0.0 3.0 0.00 0.00 0.00 67 1019.3
20210306070614 26 348 3.0 10.0 0.00 0.00 0.00 67 1019.3
20210306065856 26 351 1.0 8.0 0.00 0.00 0.00 67 1019.2
20210306064614 26 348 3.0 9.0 0.00 0.00 0.00 66 1019.2
20210306063615 26 359 3.0 9.0 0.00 0.00 0.00 68 1019.1
20210306061613 27 356 1.0 7.0 0.00 0.00 0.00 66 1018.9
20210306060613 27 0 2.0 6.0 0.00 0.00 0.00 68 1018.8
20210306055834 27 350 3.0 9.0 0.00 0.00 0.00 67 1018.6
20210306054612 28 357 7.0 14.0 0.00 0.00 0.00 67 1018.5
20210306053700 28 5 1.0 7.0 0.00 0.00 0.00 72 1018.3
20210306052927 28 6 0.0 1.0 0.00 0.00 0.00 72 1018.3
20210306051612 29 16 2.0 10.0 0.00 0.00 0.00 76 1018.2
20210306050612 29 12 1.0 3.0 0.00 0.00 0.00 75 1018.0
20210306045922 29 329 0.0 1.0 0.00 0.00 0.00 76 1017.9
20210306044615 29 334 0.0 5.0 0.00 0.00 0.00 76 1017.9
20210306043613 29 333 2.0 9.0 0.00 0.00 0.00 74 1017.9
20210306042836 30 337 6.0 9.0 0.00 0.00 0.00 72 1017.9
20210306041615 30 339 3.0 12.0 0.00 0.00 0.00 68 1017.8
20210306034613 31 316 7.0 12.0 0.00 0.00 0.00 64 1017.6
20210306033611 31 320 7.0 10.0 0.00 0.00 0.00 63 1017.6
20210306032929 31 304 5.0 12.0 0.00 0.00 0.00 64 1017.6
20210306031614 31 308 3.0 8.0 0.00 0.00 0.00 63 1017.6